Aviation Digital Data Service (ADDS)

Output produced by TAFs form (1950 UTC 06 December 2016)
found at http://aviationweather.gov/adds/tafs/
 
KASE 061729Z 0618/0718 VRB03KT P6SM BKN100 
     FM061900 31007KT P6SM VCSH BKN045 
     FM062100 31007KT P6SM VCSH OVC030 
     FM070000 27005KT 6SM -SN BR OVC035 
     FM070300 32006KT 5SM -SN BR OVC020 
     FM071000 33005KT 5SM BR VCSH OVC015